Time;durP1;ratioP1;P1;durP2;ratioP2;P2;SDS_P1;SDS_P2;PMS_P1;PMS_P2;Temp;Humidity;BMP_temperature;BMP_pressure;BME280_temperature;BME280_humidity;BME280_pressure;Samples;Min_cycle;Max_cycle;Signal;HPM_P1;HPM_P2
2023/01/27 00:00:35;;;;;;;;;;;;;;;;;;4978315;28;19911;-24
2023/01/27 00:03:01;;;;;;;;;;;;;;;;;;4977880;28;19933;-24
2023/01/27 00:05:27;;;;;;;;;;;;;;;;;;4977939;28;19910;-25
2023/01/27 00:07:54;;;;;;;;;;;;;;;;;;4977857;28;20016;-24
2023/01/27 00:10:20;;;;;;;;;;;;;;;;;;4978143;28;19910;-24
2023/01/27 00:15:30;;;;;;;;;;;;;;;;;;4977895;28;20372;-24
2023/01/27 00:17:56;;;;;;;;;;;;;;;;;;4977714;28;19914;-24
2023/01/27 00:25:57;;;;;;;;;;;;;;;;;;4977625;28;19916;-24
2023/01/27 00:28:24;;;;;;;;;;;;;;;;;;4976478;28;20033;-25
2023/01/27 00:30:50;;;;;;;;;;;;;;;;;;4977662;28;19914;-25
2023/01/27 00:33:28;;;;;;;;;;;;;;;;;;4977619;28;20036;-24
2023/01/27 00:35:54;;;;;;;;;;;;;;;;;;4977393;28;19938;-25
2023/01/27 00:38:20;;;;;;;;;;;;;;;;;;4977345;28;19973;-25
2023/01/27 00:41:14;;;;;;;;;;;;;;;;;;4977299;28;20366;-24
2023/01/27 00:43:32;;;;;;;;;;;;;;;;;;4977111;28;19914;-24
2023/01/27 00:45:59;;;;;;;;;;;;;;;;;;4977417;28;19914;-24
2023/01/27 00:48:25;;;;;;;;;;;;;;;;;;4977131;28;20329;-24
2023/01/27 00:50:51;;;;;;;;;;;;;;;;;;4977869;28;19910;-24
2023/01/27 00:53:17;;;;;;;;;;;;;;;;;;4976924;28;20045;-25
2023/01/27 00:55:43;;;;;;;;;;;;;;;;;;4976955;28;19922;-26
2023/01/27 00:58:09;;;;;;;;;;;;;;;;;;4976960;28;19969;-25
2023/01/27 01:00:35;;;;;;;;;;;;;;;;;;4976914;28;20341;-25
2023/01/27 01:03:01;;;;;;;;;;;;;;;;;;4976601;28;20356;-24
2023/01/27 01:05:27;;;;;;;;;;;;;;;;;;4976853;28;19910;-24
2023/01/27 01:07:52;;;;;;;;;;;;;;;;;;4975683;28;19932;-24
2023/01/27 01:10:18;;;;;;;;;;;;;;;;;;4976721;28;19914;-24
2023/01/27 01:12:44;;;;;;;;;;;;;;;;;;4976631;28;20016;-24
2023/01/27 01:15:10;;;;;;;;;;;;;;;;;;4976658;28;20013;-24
2023/01/27 01:17:36;;;;;;;;;;;;;;;;;;4976594;28;19925;-24
2023/01/27 01:20:02;;;;;;;;;;;;;;;;;;4976610;28;20261;-25
2023/01/27 01:22:28;;;;;;;;;;;;;;;;;;4976730;28;20325;-25
2023/01/27 01:24:54;;;;;;;;;;;;;;;;;;4976507;28;20001;-25
2023/01/27 01:27:21;;;;;;;;;;;;;;;;;;4975396;28;19958;-24
2023/01/27 01:29:47;;;;;;;;;;;;;;;;;;4976418;28;19910;-25
2023/01/27 01:32:13;;;;;;;;;;;;;;;;;;4976350;28;19944;-24
2023/01/27 01:34:39;;;;;;;;;;;;;;;;;;4976351;28;20407;-24
2023/01/27 01:37:05;;;;;;;;;;;;;;;;;;4976583;28;20320;-24
2023/01/27 01:39:31;;;;;;;;;;;;;;;;;;4975955;28;19949;-25
2023/01/27 01:41:57;;;;;;;;;;;;;;;;;;4975499;28;19932;-24
2023/01/27 01:44:23;;;;;;;;;;;;;;;;;;4976225;28;20349;-24
2023/01/27 01:46:49;;;;;;;;;;;;;;;;;;4976190;28;19921;-24
2023/01/27 01:49:15;;;;;;;;;;;;;;;;;;4976429;28;19915;-24
2023/01/27 01:51:41;;;;;;;;;;;;;;;;;;4976098;28;20086;-24
2023/01/27 01:54:08;;;;;;;;;;;;;;;;;;4975943;28;20005;-25
2023/01/27 01:56:34;;;;;;;;;;;;;;;;;;4976284;28;20003;-24
2023/01/27 01:59:00;;;;;;;;;;;;;;;;;;4976235;28;20353;-25
2023/01/27 02:01:26;;;;;;;;;;;;;;;;;;4976002;28;20004;-24
2023/01/27 02:03:51;;;;;;;;;;;;;;;;;;4975693;28;20009;-24
2023/01/27 02:06:17;;;;;;;;;;;;;;;;;;4976185;28;19914;-25
2023/01/27 02:08:44;;;;;;;;;;;;;;;;;;4975937;28;20237;-25
2023/01/27 02:11:10;;;;;;;;;;;;;;;;;;4975939;28;20237;-24
2023/01/27 02:13:36;;;;;;;;;;;;;;;;;;4975809;28;19914;-25
2023/01/27 02:16:01;;;;;;;;;;;;;;;;;;4975892;28;20253;-25
2023/01/27 02:18:27;;;;;;;;;;;;;;;;;;4975854;28;20025;-25
2023/01/27 02:20:54;;;;;;;;;;;;;;;;;;4976064;28;19969;-24
2023/01/27 02:23:20;;;;;;;;;;;;;;;;;;4975770;28;19915;-25
2023/01/27 02:25:46;;;;;;;;;;;;;;;;;;4975764;28;20369;-25
2023/01/27 02:28:12;;;;;;;;;;;;;;;;;;4975682;28;19961;-25
2023/01/27 02:30:38;;;;;;;;;;;;;;;;;;4975777;28;19914;-25
2023/01/27 02:33:04;;;;;;;;;;;;;;;;;;4975722;28;19920;-25
2023/01/27 02:35:30;;;;;;;;;;;;;;;;;;4974723;28;19934;-25
2023/01/27 02:37:56;;;;;;;;;;;;;;;;;;4975634;28;19945;-25
2023/01/27 02:40:22;;;;;;;;;;;;;;;;;;4975489;28;19977;-25
2023/01/27 02:42:48;;;;;;;;;;;;;;;;;;4975680;28;19973;-25
2023/01/27 02:45:14;;;;;;;;;;;;;;;;;;4975866;28;20372;-25
2023/01/27 02:47:40;;;;;;;;;;;;;;;;;;4974493;28;19918;-25
2023/01/27 02:50:06;;;;;;;;;;;;;;;;;;4975607;28;19910;-25
2023/01/27 02:52:32;;;;;;;;;;;;;;;;;;4977102;28;19961;-25
2023/01/27 02:54:58;;;;;;;;;;;;;;;;;;4979081;28;20372;-25
2023/01/27 02:57:24;;;;;;;;;;;;;;;;;;4979214;28;19910;-25
2023/01/27 02:59:50;;;;;;;;;;;;;;;;;;4978249;28;20049;-25
2023/01/27 03:02:21;;;;;;;;;;;;;;;;;;4979031;28;19984;-25
2023/01/27 03:04:47;;;;;;;;;;;;;;;;;;4979381;28;19949;-25
2023/01/27 03:07:13;;;;;;;;;;;;;;;;;;4978943;28;20333;-26
2023/01/27 03:09:39;;;;;;;;;;;;;;;;;;4979236;28;19921;-25
2023/01/27 03:12:20;;;;;;;;;;;;;;;;;;4979452;28;20009;-25
2023/01/27 03:20:16;;;;;;;;;;;;;;;;;;4978722;28;20229;-24
2023/01/27 03:22:42;;;;;;;;;;;;;;;;;;4978698;28;19918;-24
2023/01/27 03:25:08;;;;;;;;;;;;;;;;;;4977791;28;19910;-24
2023/01/27 03:27:34;;;;;;;;;;;;;;;;;;4977372;28;20012;-25
2023/01/27 03:30:00;;;;;;;;;;;;;;;;;;4978345;28;19978;-25
2023/01/27 03:32:26;;;;;;;;;;;;;;;;;;4978380;28;19921;-25
2023/01/27 03:34:52;;;;;;;;;;;;;;;;;;4978600;28;20080;-24
2023/01/27 03:48:19;;;;;;;;;;;;;;;;;;4978479;28;19973;-25
2023/01/27 03:50:51;;;;;;;;;;;;;;;;;;4979195;28;19914;-25
2023/01/27 03:53:17;;;;;;;;;;;;;;;;;;4978141;28;20265;-24
2023/01/27 03:55:45;;;;;;;;;;;;;;;;;;4978173;28;19926;-25
2023/01/27 03:58:18;;;;;;;;;;;;;;;;;;4978344;28;19976;-27
2023/01/27 04:00:44;;;;;;;;;;;;;;;;;;4978136;28;20341;-25
2023/01/27 04:08:39;;;;;;;;;;;;;;;;;;4978057;28;20477;-24
2023/01/27 04:13:49;;;;;;;;;;;;;;;;;;4977860;28;19925;-25
2023/01/27 04:16:18;;;;;;;;;;;;;;;;;;4977793;28;19910;-25
2023/01/27 04:18:45;;;;;;;;;;;;;;;;;;4977718;28;19921;-24
2023/01/27 04:21:12;;;;;;;;;;;;;;;;;;4976770;28;19996;-24
2023/01/27 04:23:38;;;;;;;;;;;;;;;;;;4977618;28;19921;-25
2023/01/27 04:26:04;;;;;;;;;;;;;;;;;;4977531;28;19993;-25
2023/01/27 04:28:30;;;;;;;;;;;;;;;;;;4977583;28;20264;-30
2023/01/27 04:30:55;;;;;;;;;;;;;;;;;;4976573;28;19914;-28
2023/01/27 04:33:22;;;;;;;;;;;;;;;;;;4977640;28;19914;-25
2023/01/27 04:35:49;;;;;;;;;;;;;;;;;;4977300;28;19914;-31
2023/01/27 04:38:15;;;;;;;;;;;;;;;;;;4977641;28;20313;-28
2023/01/27 04:40:41;;;;;;;;;;;;;;;;;;4977294;28;19914;-26
2023/01/27 04:43:07;;;;;;;;;;;;;;;;;;4977386;28;20008;-29
2023/01/27 04:45:33;;;;;;;;;;;;;;;;;;4977057;28;19914;-24
2023/01/27 04:47:59;;;;;;;;;;;;;;;;;;4975921;28;19929;-28
2023/01/27 04:50:25;;;;;;;;;;;;;;;;;;4977211;28;19914;-26
2023/01/27 04:52:51;;;;;;;;;;;;;;;;;;4975832;28;20266;-29
2023/01/27 04:55:17;;;;;;;;;;;;;;;;;;4975846;28;19920;-31
2023/01/27 04:57:43;;;;;;;;;;;;;;;;;;4977070;28;20230;-30
2023/01/27 05:00:09;;;;;;;;;;;;;;;;;;4976754;28;19914;-28
2023/01/27 05:02:35;;;;;;;;;;;;;;;;;;4976691;28;19922;-26
2023/01/27 05:05:03;;;;;;;;;;;;;;;;;;4976672;28;20312;-29
2023/01/27 05:07:29;;;;;;;;;;;;;;;;;;4976557;28;20306;-27
2023/01/27 05:09:55;;;;;;;;;;;;;;;;;;4976307;28;19949;-27
2023/01/27 05:12:21;;;;;;;;;;;;;;;;;;4975671;28;19918;-32
2023/01/27 05:14:47;;;;;;;;;;;;;;;;;;4975652;28;19994;-28
2023/01/27 05:17:13;;;;;;;;;;;;;;;;;;4976423;28;19920;-29
2023/01/27 05:19:39;;;;;;;;;;;;;;;;;;4976690;28;19921;-27
2023/01/27 05:22:05;;;;;;;;;;;;;;;;;;4975324;28;19910;-25
2023/01/27 05:24:31;;;;;;;;;;;;;;;;;;4976290;28;19921;-25
2023/01/27 05:26:57;;;;;;;;;;;;;;;;;;4976080;28;19926;-27
2023/01/27 05:29:23;;;;;;;;;;;;;;;;;;4976083;28;19914;-27
2023/01/27 05:31:49;;;;;;;;;;;;;;;;;;4976264;28;19914;-31
2023/01/27 05:34:15;;;;;;;;;;;;;;;;;;4976021;28;19925;-24
2023/01/27 05:36:41;;;;;;;;;;;;;;;;;;4976048;28;19921;-27
2023/01/27 05:39:07;;;;;;;;;;;;;;;;;;4975963;28;19957;-28
2023/01/27 05:41:33;;;;;;;;;;;;;;;;;;4976310;28;19929;-33
2023/01/27 05:43:59;;;;;;;;;;;;;;;;;;4975945;28;19996;-26
2023/01/27 05:46:25;;;;;;;;;;;;;;;;;;4975885;28;19957;-25
2023/01/27 05:48:51;;;;;;;;;;;;;;;;;;4975946;28;20384;-28
2023/01/27 05:51:17;;;;;;;;;;;;;;;;;;4975850;28;19914;-30
2023/01/27 05:53:43;;;;;;;;;;;;;;;;;;4975648;28;19921;-27
2023/01/27 05:56:09;;;;;;;;;;;;;;;;;;4975888;28;19914;-30
2023/01/27 05:58:35;;;;;;;;;;;;;;;;;;4975455;28;19914;-24
2023/01/27 06:01:01;;;;;;;;;;;;;;;;;;4975478;28;19917;-25
2023/01/27 06:03:27;;;;;;;;;;;;;;;;;;4975237;28;19922;-25
2023/01/27 06:05:53;;;;;;;;;;;;;;;;;;4975651;28;19921;-28
2023/01/27 06:08:19;;;;;;;;;;;;;;;;;;4974845;28;19980;-31
2023/01/27 06:10:45;;;;;;;;;;;;;;;;;;4975363;28;20257;-30
2023/01/27 06:13:11;;;;;;;;;;;;;;;;;;4975411;28;19948;-27
2023/01/27 06:15:37;;;;;;;;;;;;;;;;;;4975378;28;19914;-26
2023/01/27 06:18:03;;;;;;;;;;;;;;;;;;4975780;28;19914;-25
2023/01/27 06:20:29;;;;;;;;;;;;;;;;;;4975506;28;20278;-30
2023/01/27 06:22:55;;;;;;;;;;;;;;;;;;4974475;28;19957;-24
2023/01/27 06:25:21;;;;;;;;;;;;;;;;;;4975294;28;19938;-30
2023/01/27 06:27:47;;;;;;;;;;;;;;;;;;4979164;28;20219;-27
2023/01/27 06:30:13;;;;;;;;;;;;;;;;;;4980070;28;19910;-25
2023/01/27 06:32:39;;;;;;;;;;;;;;;;;;4979063;28;19964;-31
2023/01/27 06:35:05;;;;;;;;;;;;;;;;;;4978118;28;19910;-31
2023/01/27 06:37:31;;;;;;;;;;;;;;;;;;4979194;28;19920;-28
2023/01/27 06:39:57;;;;;;;;;;;;;;;;;;4979304;28;19914;-28
2023/01/27 06:42:23;;;;;;;;;;;;;;;;;;4979085;28;20345;-27
2023/01/27 06:44:49;;;;;;;;;;;;;;;;;;4979010;28;19916;-24
2023/01/27 06:47:15;;;;;;;;;;;;;;;;;;4979149;28;19966;-31
2023/01/27 06:49:41;;;;;;;;;;;;;;;;;;4978025;28;19950;-26
2023/01/27 06:52:07;;;;;;;;;;;;;;;;;;4978817;28;19949;-26
2023/01/27 06:54:33;;;;;;;;;;;;;;;;;;4978831;28;19910;-25
2023/01/27 06:56:59;;;;;;;;;;;;;;;;;;4978872;28;20249;-26
2023/01/27 06:59:25;;;;;;;;;;;;;;;;;;4977519;28;19910;-29
2023/01/27 07:01:51;;;;;;;;;;;;;;;;;;4978252;28;19957;-31
2023/01/27 07:04:17;;;;;;;;;;;;;;;;;;4978400;28;19967;-30
2023/01/27 07:06:43;;;;;;;;;;;;;;;;;;4978190;28;19933;-30
2023/01/27 07:09:10;;;;;;;;;;;;;;;;;;4978434;28;19914;-32
2023/01/27 07:11:36;;;;;;;;;;;;;;;;;;4977253;28;19953;-26
2023/01/27 07:14:02;;;;;;;;;;;;;;;;;;4977879;28;19922;-28
2023/01/27 07:16:28;;;;;;;;;;;;;;;;;;4976837;28;19964;-26
2023/01/27 07:18:54;;;;;;;;;;;;;;;;;;4977923;28;19925;-27
2023/01/27 07:21:20;;;;;;;;;;;;;;;;;;4976829;28;19910;-26
2023/01/27 07:23:46;;;;;;;;;;;;;;;;;;4977942;28;19996;-24
2023/01/27 07:26:12;;;;;;;;;;;;;;;;;;4977653;28;19929;-30
2023/01/27 07:28:38;;;;;;;;;;;;;;;;;;4977800;28;20267;-24
2023/01/27 07:31:04;;;;;;;;;;;;;;;;;;4977734;28;19915;-30
2023/01/27 07:33:30;;;;;;;;;;;;;;;;;;4977562;28;19932;-24
2023/01/27 07:35:56;;;;;;;;;;;;;;;;;;4977723;28;20001;-30
2023/01/27 07:38:23;;;;;;;;;;;;;;;;;;4976915;28;20012;-28
2023/01/27 07:40:49;;;;;;;;;;;;;;;;;;4978075;28;19956;-26
2023/01/27 07:43:15;;;;;;;;;;;;;;;;;;4977870;28;20034;-25
2023/01/27 07:45:41;;;;;;;;;;;;;;;;;;4977976;28;20001;-30
2023/01/27 07:48:07;;;;;;;;;;;;;;;;;;4976893;28;20333;-30
2023/01/27 07:50:33;;;;;;;;;;;;;;;;;;4977829;28;20001;-25
2023/01/27 07:52:59;;;;;;;;;;;;;;;;;;4977486;28;19946;-30
2023/01/27 07:55:25;;;;;;;;;;;;;;;;;;4977744;28;20321;-27
2023/01/27 07:57:51;;;;;;;;;;;;;;;;;;4977477;28;20252;-25
2023/01/27 08:00:20;;;;;;;;;;;;;;;;;;4978144;28;20306;-25
2023/01/27 08:02:46;;;;;;;;;;;;;;;;;;4977312;28;19918;-24
2023/01/27 08:05:12;;;;;;;;;;;;;;;;;;4976546;28;19910;-26
2023/01/27 08:07:38;;;;;;;;;;;;;;;;;;4977517;28;19918;-25
2023/01/27 08:10:04;;;;;;;;;;;;;;;;;;4977642;28;19910;-28
2023/01/27 08:12:30;;;;;;;;;;;;;;;;;;4977686;28;20013;-24
2023/01/27 08:14:56;;;;;;;;;;;;;;;;;;4976296;28;19914;-26
2023/01/27 08:17:22;;;;;;;;;;;;;;;;;;4977269;28;19936;-28
2023/01/27 08:19:50;;;;;;;;;;;;;;;;;;4977531;28;20356;-30
2023/01/27 08:22:19;;;;;;;;;;;;;;;;;;4977110;28;19922;-25
2023/01/27 08:24:45;;;;;;;;;;;;;;;;;;4976199;28;19914;-26
2023/01/27 08:27:11;;;;;;;;;;;;;;;;;;4977133;28;20235;-25
2023/01/27 08:29:37;;;;;;;;;;;;;;;;;;4977354;28;19957;-27
2023/01/27 08:32:03;;;;;;;;;;;;;;;;;;4976841;28;20394;-24
2023/01/27 08:34:29;;;;;;;;;;;;;;;;;;4976882;28;20288;-29
2023/01/27 08:36:55;;;;;;;;;;;;;;;;;;4977074;28;19914;-30
2023/01/27 08:39:21;;;;;;;;;;;;;;;;;;4976649;28;19940;-32
2023/01/27 08:41:48;;;;;;;;;;;;;;;;;;4976976;28;19996;-33
2023/01/27 08:44:14;;;;;;;;;;;;;;;;;;4976956;28;19926;-26
2023/01/27 08:46:40;;;;;;;;;;;;;;;;;;4976471;28;20014;-27
2023/01/27 08:49:06;;;;;;;;;;;;;;;;;;4974630;28;19914;-30
2023/01/27 08:51:32;;;;;;;;;;;;;;;;;;4976164;28;19914;-29
2023/01/27 08:53:58;;;;;;;;;;;;;;;;;;4976644;28;19918;-27
2023/01/27 08:56:24;;;;;;;;;;;;;;;;;;4975417;28;19910;-24
2023/01/27 08:58:51;;;;;;;;;;;;;;;;;;4976313;28;19973;-28
2023/01/27 09:01:17;;;;;;;;;;;;;;;;;;4976326;28;20001;-28
2023/01/27 09:03:43;;;;;;;;;;;;;;;;;;4975994;28;19932;-25
2023/01/27 09:06:09;;;;;;;;;;;;;;;;;;4976136;28;19922;-28
2023/01/27 09:08:35;;;;;;;;;;;;;;;;;;4976335;28;19930;-28
2023/01/27 09:11:01;;;;;;;;;;;;;;;;;;4976278;28;20076;-25
2023/01/27 09:13:27;;;;;;;;;;;;;;;;;;4975477;28;19914;-24
2023/01/27 09:15:54;;;;;;;;;;;;;;;;;;4975309;28;19976;-29
2023/01/27 09:18:20;;;;;;;;;;;;;;;;;;4976359;28;19980;-28
2023/01/27 09:20:46;;;;;;;;;;;;;;;;;;4976290;28;19921;-27
2023/01/27 09:23:12;;;;;;;;;;;;;;;;;;4975086;28;19914;-26
2023/01/27 09:25:38;;;;;;;;;;;;;;;;;;4976065;28;19914;-25
2023/01/27 09:28:04;;;;;;;;;;;;;;;;;;4976061;28;19925;-26
2023/01/27 09:30:30;;;;;;;;;;;;;;;;;;4975004;28;20261;-29
2023/01/27 09:32:56;;;;;;;;;;;;;;;;;;4976006;28;19918;-26
2023/01/27 09:35:22;;;;;;;;;;;;;;;;;;4976072;28;19914;-31
2023/01/27 09:37:48;;;;;;;;;;;;;;;;;;4975931;28;19914;-28
2023/01/27 09:40:14;;;;;;;;;;;;;;;;;;4976492;28;19911;-30
2023/01/27 09:42:40;;;;;;;;;;;;;;;;;;4974720;28;19918;-28
2023/01/27 09:45:06;;;;;;;;;;;;;;;;;;4975371;28;19982;-28
2023/01/27 09:47:32;;;;;;;;;;;;;;;;;;4975245;28;19929;-30
2023/01/27 09:49:58;;;;;;;;;;;;;;;;;;4974042;28;19921;-29
2023/01/27 09:52:25;;;;;;;;;;;;;;;;;;4974161;28;19910;-30
2023/01/27 09:54:51;;;;;;;;;;;;;;;;;;4974799;28;19949;-28
2023/01/27 09:57:17;;;;;;;;;;;;;;;;;;4975579;28;20308;-27
2023/01/27 09:59:43;;;;;;;;;;;;;;;;;;4975555;28;19993;-27
2023/01/27 10:02:09;;;;;;;;;;;;;;;;;;4975422;28;19910;-29
2023/01/27 10:04:35;;;;;;;;;;;;;;;;;;4975200;28;20305;-26
2023/01/27 10:07:01;;;;;;;;;;;;;;;;;;4975108;28;20222;-29
2023/01/27 10:09:33;;;;;;;;;;;;;;;;;;4975316;28;20407;-26
2023/01/27 10:11:59;;;;;;;;;;;;;;;;;;4975302;28;19915;-33
2023/01/27 10:14:25;;;;;;;;;;;;;;;;;;4974036;28;20322;-24
2023/01/27 10:16:52;;;;;;;;;;;;;;;;;;4974958;28;20368;-29
2023/01/27 10:19:18;;;;;;;;;;;;;;;;;;4974937;28;19911;-24
2023/01/27 10:21:44;;;;;;;;;;;;;;;;;;4974769;28;19925;-30
2023/01/27 10:24:10;;;;;;;;;;;;;;;;;;4975300;28;19916;-28
2023/01/27 10:26:36;;;;;;;;;;;;;;;;;;4975052;28;19925;-27
2023/01/27 10:29:03;;;;;;;;;;;;;;;;;;4974361;28;19972;-27
2023/01/27 10:31:29;;;;;;;;;;;;;;;;;;4974353;28;19914;-26
2023/01/27 10:33:55;;;;;;;;;;;;;;;;;;4975241;28;20016;-25
2023/01/27 10:36:21;;;;;;;;;;;;;;;;;;4975148;28;20262;-28
2023/01/27 10:38:47;;;;;;;;;;;;;;;;;;4975345;28;19949;-33
2023/01/27 10:41:13;;;;;;;;;;;;;;;;;;4975286;28;20332;-26
2023/01/27 10:43:39;;;;;;;;;;;;;;;;;;4975165;28;19938;-32
2023/01/27 10:46:05;;;;;;;;;;;;;;;;;;4975258;28;19914;-28
2023/01/27 10:48:31;;;;;;;;;;;;;;;;;;4975380;28;19926;-28
2023/01/27 10:50:57;;;;;;;;;;;;;;;;;;4975343;28;20294;-28
2023/01/27 10:53:23;;;;;;;;;;;;;;;;;;4974054;28;19929;-28
2023/01/27 10:55:49;;;;;;;;;;;;;;;;;;4975089;28;19914;-28
2023/01/27 10:58:16;;;;;;;;;;;;;;;;;;4975385;28;19988;-27
2023/01/27 11:00:42;;;;;;;;;;;;;;;;;;4975141;28;19933;-29
2023/01/27 11:03:07;;;;;;;;;;;;;;;;;;4974545;28;19922;-28
2023/01/27 11:05:33;;;;;;;;;;;;;;;;;;4975287;28;19918;-29
2023/01/27 11:07:59;;;;;;;;;;;;;;;;;;4974845;28;20356;-27
2023/01/27 11:10:26;;;;;;;;;;;;;;;;;;4974846;28;20012;-33
2023/01/27 11:12:52;;;;;;;;;;;;;;;;;;4975586;28;19924;-27
2023/01/27 11:15:18;;;;;;;;;;;;;;;;;;4978353;28;20373;-26
2023/01/27 11:17:44;;;;;;;;;;;;;;;;;;4978604;28;19997;-30
2023/01/27 11:20:11;;;;;;;;;;;;;;;;;;4977164;28;19949;-28
2023/01/27 11:22:37;;;;;;;;;;;;;;;;;;4977916;28;19977;-30
2023/01/27 11:25:03;;;;;;;;;;;;;;;;;;4977938;28;19925;-25
2023/01/27 11:27:29;;;;;;;;;;;;;;;;;;4978195;28;19914;-29
2023/01/27 11:29:55;;;;;;;;;;;;;;;;;;4978683;28;19922;-31
2023/01/27 11:32:21;;;;;;;;;;;;;;;;;;4978369;28;19914;-27
2023/01/27 11:34:47;;;;;;;;;;;;;;;;;;4977976;28;19925;-29
2023/01/27 11:37:13;;;;;;;;;;;;;;;;;;4978216;28;19914;-27
2023/01/27 11:39:39;;;;;;;;;;;;;;;;;;4976943;28;19914;-28
2023/01/27 11:42:05;;;;;;;;;;;;;;;;;;4977329;28;19914;-26
2023/01/27 11:44:31;;;;;;;;;;;;;;;;;;4976773;28;20333;-25
2023/01/27 11:46:57;;;;;;;;;;;;;;;;;;4976410;28;19973;-29
2023/01/27 11:49:23;;;;;;;;;;;;;;;;;;4977688;28;20269;-28
2023/01/27 11:51:49;;;;;;;;;;;;;;;;;;4977861;28;19933;-27
2023/01/27 11:54:15;;;;;;;;;;;;;;;;;;4977532;28;19914;-28
2023/01/27 11:56:41;;;;;;;;;;;;;;;;;;4977323;28;20349;-30
2023/01/27 11:59:07;;;;;;;;;;;;;;;;;;4976847;28;19914;-26
2023/01/27 12:01:33;;;;;;;;;;;;;;;;;;4975911;28;19933;-26
2023/01/27 12:04:00;;;;;;;;;;;;;;;;;;4975611;28;20041;-26
2023/01/27 12:06:26;;;;;;;;;;;;;;;;;;4976801;28;20311;-27
2023/01/27 12:08:51;;;;;;;;;;;;;;;;;;4976995;28;20274;-26
2023/01/27 12:11:17;;;;;;;;;;;;;;;;;;4976894;28;19910;-29
2023/01/27 12:13:43;;;;;;;;;;;;;;;;;;4976614;28;20291;-28
2023/01/27 12:16:09;;;;;;;;;;;;;;;;;;4976724;28;19993;-26
2023/01/27 12:18:35;;;;;;;;;;;;;;;;;;4976812;28;19924;-28
2023/01/27 12:21:01;;;;;;;;;;;;;;;;;;4977045;28;20317;-28
2023/01/27 12:23:27;;;;;;;;;;;;;;;;;;4976987;28;19914;-30
2023/01/27 12:25:53;;;;;;;;;;;;;;;;;;4976927;28;19918;-26
2023/01/27 12:28:20;;;;;;;;;;;;;;;;;;4977414;28;20333;-30
2023/01/27 12:30:46;;;;;;;;;;;;;;;;;;4977132;28;19915;-26
2023/01/27 12:33:12;;;;;;;;;;;;;;;;;;4976890;28;19917;-29
2023/01/27 12:35:37;;;;;;;;;;;;;;;;;;4975779;28;19914;-27
2023/01/27 12:38:03;;;;;;;;;;;;;;;;;;4977021;28;20000;-28
2023/01/27 12:40:29;;;;;;;;;;;;;;;;;;4976990;28;20328;-27
2023/01/27 12:42:55;;;;;;;;;;;;;;;;;;4977019;28;19910;-26
2023/01/27 12:45:21;;;;;;;;;;;;;;;;;;4976953;28;19944;-33
2023/01/27 12:47:47;;;;;;;;;;;;;;;;;;4976985;28;19961;-28
2023/01/27 12:50:13;;;;;;;;;;;;;;;;;;4977169;28;20346;-30
2023/01/27 12:52:40;;;;;;;;;;;;;;;;;;4976931;28;20312;-25
2023/01/27 12:55:06;;;;;;;;;;;;;;;;;;4976842;28;19925;-27
2023/01/27 12:57:32;;;;;;;;;;;;;;;;;;4977231;28;19910;-27
2023/01/27 12:59:58;;;;;;;;;;;;;;;;;;4976782;28;19919;-25
2023/01/27 13:02:24;;;;;;;;;;;;;;;;;;4976330;28;19914;-27
2023/01/27 13:04:50;;;;;;;;;;;;;;;;;;4976627;28;19965;-28
2023/01/27 13:07:16;;;;;;;;;;;;;;;;;;4975475;28;20365;-27
2023/01/27 13:09:42;;;;;;;;;;;;;;;;;;4976665;28;19914;-27
2023/01/27 13:12:08;;;;;;;;;;;;;;;;;;4976565;28;19937;-28
2023/01/27 13:14:34;;;;;;;;;;;;;;;;;;4975444;28;19910;-29
2023/01/27 13:17:01;;;;;;;;;;;;;;;;;;4976628;28;20126;-27
2023/01/27 13:19:27;;;;;;;;;;;;;;;;;;4976236;28;19914;-28
2023/01/27 13:21:54;;;;;;;;;;;;;;;;;;4976191;28;19921;-30
2023/01/27 13:24:20;;;;;;;;;;;;;;;;;;4976625;28;20009;-27
2023/01/27 13:26:46;;;;;;;;;;;;;;;;;;4976340;28;19961;-25
2023/01/27 13:29:12;;;;;;;;;;;;;;;;;;4975877;28;20253;-28
2023/01/27 13:31:39;;;;;;;;;;;;;;;;;;4976193;28;19910;-25
2023/01/27 13:34:05;;;;;;;;;;;;;;;;;;4976247;28;19972;-26
2023/01/27 13:36:31;;;;;;;;;;;;;;;;;;4975971;28;20257;-25
2023/01/27 13:38:57;;;;;;;;;;;;;;;;;;4976076;28;19965;-27
2023/01/27 13:41:23;;;;;;;;;;;;;;;;;;4976080;28;19918;-32
2023/01/27 13:43:49;;;;;;;;;;;;;;;;;;4974873;28;19972;-33
2023/01/27 13:46:15;;;;;;;;;;;;;;;;;;4976275;28;19914;-27
2023/01/27 13:48:41;;;;;;;;;;;;;;;;;;4976178;28;20261;-29
2023/01/27 13:51:07;;;;;;;;;;;;;;;;;;4974779;28;19914;-28
2023/01/27 13:53:33;;;;;;;;;;;;;;;;;;4975674;28;20022;-32
2023/01/27 13:55:59;;;;;;;;;;;;;;;;;;4975631;28;19917;-27
2023/01/27 13:58:25;;;;;;;;;;;;;;;;;;4975575;28;19982;-27
2023/01/27 14:00:51;;;;;;;;;;;;;;;;;;4975729;28;19997;-29
2023/01/27 14:03:17;;;;;;;;;;;;;;;;;;4975392;28;19922;-27
2023/01/27 14:05:43;;;;;;;;;;;;;;;;;;4975740;28;19918;-26
2023/01/27 14:08:11;;;;;;;;;;;;;;;;;;4975757;28;20257;-28
2023/01/27 14:10:38;;;;;;;;;;;;;;;;;;4975571;28;19938;-29
2023/01/27 14:13:04;;;;;;;;;;;;;;;;;;4975383;28;19921;-26
2023/01/27 14:15:30;;;;;;;;;;;;;;;;;;4975596;28;19993;-30
2023/01/27 14:17:56;;;;;;;;;;;;;;;;;;4975760;28;19914;-28
2023/01/27 14:20:23;;;;;;;;;;;;;;;;;;4975616;28;20000;-27
2023/01/27 14:22:49;;;;;;;;;;;;;;;;;;4975566;28;19914;-25
2023/01/27 14:25:15;;;;;;;;;;;;;;;;;;4975599;28;19941;-32
2023/01/27 14:27:41;;;;;;;;;;;;;;;;;;4975438;28;20253;-29
2023/01/27 14:30:07;;;;;;;;;;;;;;;;;;4975402;28;19921;-26
2023/01/27 14:32:33;;;;;;;;;;;;;;;;;;4975358;28;19965;-27
2023/01/27 14:34:59;;;;;;;;;;;;;;;;;;4974257;28;20243;-26
2023/01/27 14:37:25;;;;;;;;;;;;;;;;;;4975251;28;19914;-27
2023/01/27 14:39:51;;;;;;;;;;;;;;;;;;4975551;28;19910;-29
2023/01/27 14:42:18;;;;;;;;;;;;;;;;;;4975281;28;19914;-30
2023/01/27 14:44:43;;;;;;;;;;;;;;;;;;4975531;28;19918;-28
2023/01/27 14:47:09;;;;;;;;;;;;;;;;;;4975309;28;20349;-33
2023/01/27 14:49:35;;;;;;;;;;;;;;;;;;4978834;28;19948;-28
2023/01/27 14:52:02;;;;;;;;;;;;;;;;;;4979073;28;20392;-29
2023/01/27 14:54:28;;;;;;;;;;;;;;;;;;4977988;28;19985;-33
2023/01/27 14:56:54;;;;;;;;;;;;;;;;;;4979163;28;19911;-25
2023/01/27 14:59:19;;;;;;;;;;;;;;;;;;4979185;28;19928;-28
2023/01/27 15:01:46;;;;;;;;;;;;;;;;;;4978848;28;19910;-30
2023/01/27 15:04:11;;;;;;;;;;;;;;;;;;4978773;28;20295;-30
2023/01/27 15:06:37;;;;;;;;;;;;;;;;;;4978662;28;19998;-29
2023/01/27 15:09:03;;;;;;;;;;;;;;;;;;4977711;28;19929;-30
2023/01/27 15:11:29;;;;;;;;;;;;;;;;;;4979313;28;19917;-31
2023/01/27 15:13:55;;;;;;;;;;;;;;;;;;4978652;28;19954;-28
2023/01/27 15:16:21;;;;;;;;;;;;;;;;;;4978640;28;19997;-26
2023/01/27 15:18:47;;;;;;;;;;;;;;;;;;4977408;28;20012;-30
2023/01/27 15:21:13;;;;;;;;;;;;;;;;;;4978642;28;20372;-27
2023/01/27 15:23:39;;;;;;;;;;;;;;;;;;4978423;28;20365;-27
2023/01/27 15:26:05;;;;;;;;;;;;;;;;;;4977644;28;19910;-29
2023/01/27 15:28:31;;;;;;;;;;;;;;;;;;4978409;28;20348;-29
2023/01/27 15:30:57;;;;;;;;;;;;;;;;;;4977813;28;19937;-27
2023/01/27 15:33:23;;;;;;;;;;;;;;;;;;4978297;28;20353;-27
2023/01/27 15:35:49;;;;;;;;;;;;;;;;;;4978925;28;19910;-28
2023/01/27 15:38:15;;;;;;;;;;;;;;;;;;4977292;28;20354;-27
2023/01/27 15:40:41;;;;;;;;;;;;;;;;;;4978398;28;20249;-33
2023/01/27 15:43:07;;;;;;;;;;;;;;;;;;4978208;28;19914;-34
2023/01/27 15:45:33;;;;;;;;;;;;;;;;;;4977131;28;19918;-27
2023/01/27 15:47:59;;;;;;;;;;;;;;;;;;4978321;28;19976;-28
2023/01/27 15:50:25;;;;;;;;;;;;;;;;;;4978017;28;19910;-27
2023/01/27 15:52:51;;;;;;;;;;;;;;;;;;4977693;28;19914;-27
2023/01/27 15:55:17;;;;;;;;;;;;;;;;;;4978031;28;20359;-29
2023/01/27 15:57:43;;;;;;;;;;;;;;;;;;4978204;28;19980;-28
2023/01/27 16:00:09;;;;;;;;;;;;;;;;;;4976421;28;19925;-26
2023/01/27 16:02:35;;;;;;;;;;;;;;;;;;4977765;28;20347;-25
2023/01/27 16:05:01;;;;;;;;;;;;;;;;;;4978067;28;20245;-30
2023/01/27 16:07:27;;;;;;;;;;;;;;;;;;4977836;28;19918;-29
2023/01/27 16:09:53;;;;;;;;;;;;;;;;;;4978068;28;19925;-30
2023/01/27 16:12:19;;;;;;;;;;;;;;;;;;4977662;28;19914;-28
2023/01/27 16:14:45;;;;;;;;;;;;;;;;;;4977294;28;20342;-28
2023/01/27 16:17:11;;;;;;;;;;;;;;;;;;4976909;28;19910;-32
2023/01/27 16:19:37;;;;;;;;;;;;;;;;;;4976631;28;19921;-34
2023/01/27 16:22:03;;;;;;;;;;;;;;;;;;4976808;28;19914;-35
2023/01/27 16:24:29;;;;;;;;;;;;;;;;;;4976690;28;20286;-31
2023/01/27 16:26:55;;;;;;;;;;;;;;;;;;4975506;28;19918;-30
2023/01/27 16:29:21;;;;;;;;;;;;;;;;;;4976697;28;20001;-27
2023/01/27 16:31:47;;;;;;;;;;;;;;;;;;4976659;28;20401;-35
2023/01/27 16:34:13;;;;;;;;;;;;;;;;;;4976406;28;19961;-27
2023/01/27 16:36:39;;;;;;;;;;;;;;;;;;4976508;28;20301;-25
2023/01/27 16:39:05;;;;;;;;;;;;;;;;;;4976659;28;19964;-33
2023/01/27 16:41:34;;;;;;;;;;;;;;;;;;4977232;28;19960;-26
2023/01/27 16:44:00;;;;;;;;;;;;;;;;;;4976956;28;19925;-26
2023/01/27 16:46:27;;;;;;;;;;;;;;;;;;4977151;28;19910;-29
2023/01/27 16:48:53;;;;;;;;;;;;;;;;;;4976078;28;19928;-26
2023/01/27 16:51:19;;;;;;;;;;;;;;;;;;4976817;28;20383;-29
2023/01/27 16:53:45;;;;;;;;;;;;;;;;;;4976917;28;19910;-28
2023/01/27 16:56:11;;;;;;;;;;;;;;;;;;4977130;28;19915;-27
2023/01/27 16:58:37;;;;;;;;;;;;;;;;;;4977029;28;19926;-25
2023/01/27 17:01:03;;;;;;;;;;;;;;;;;;4977257;28;19917;-27
2023/01/27 17:03:29;;;;;;;;;;;;;;;;;;4976568;28;19921;-31
2023/01/27 17:05:55;;;;;;;;;;;;;;;;;;4976880;28;20008;-30
2023/01/27 17:08:21;;;;;;;;;;;;;;;;;;4976973;28;20318;-34
2023/01/27 17:10:47;;;;;;;;;;;;;;;;;;4974721;28;19925;-26